sensor_id;sensor_type;location;lat;lon;timestamp;pressure;altitude;pressure_sealevel;temperature
13497;BMP180;6820;49.374;8.452;2024-03-02T00:02:43;99403.25;;;14.00
13497;BMP180;6820;49.374;8.452;2024-03-02T00:06:51;99403.06;;;13.95
13497;BMP180;6820;49.374;8.452;2024-03-02T00:10:58;99394.47;;;13.92
13497;BMP180;6820;49.374;8.452;2024-03-02T00:15:01;99401.88;;;13.86
13497;BMP180;6820;49.374;8.452;2024-03-02T00:19:05;99385.72;;;13.84
13497;BMP180;6820;49.374;8.452;2024-03-02T00:23:09;99394.91;;;13.80
13497;BMP180;6820;49.374;8.452;2024-03-02T00:27:14;99390.72;;;13.81
13497;BMP180;6820;49.374;8.452;2024-03-02T00:31:19;99396.59;;;13.80
13497;BMP180;6820;49.374;8.452;2024-03-02T00:35:23;99397.34;;;13.76
13497;BMP180;6820;49.374;8.452;2024-03-02T00:39:24;99411.69;;;13.74
13497;BMP180;6820;49.374;8.452;2024-03-02T00:47:41;99400.31;;;13.65
13497;BMP180;6820;49.374;8.452;2024-03-02T00:51:46;99407.09;;;13.64
13497;BMP180;6820;49.374;8.452;2024-03-02T00:55:50;99410.47;;;13.63
13497;BMP180;6820;49.374;8.452;2024-03-02T00:59:52;99410.47;;;13.63
13497;BMP180;6820;49.374;8.452;2024-03-02T01:03:53;99404.53;;;13.64
13497;BMP180;6820;49.374;8.452;2024-03-02T01:07:55;99417.25;;;13.63
13497;BMP180;6820;49.374;8.452;2024-03-02T01:11:57;99418.03;;;13.62
13497;BMP180;6820;49.374;8.452;2024-03-02T01:15:59;99413.78;;;13.61
13497;BMP180;6820;49.374;8.452;2024-03-02T01:20:01;99406.81;;;13.55
13497;BMP180;6820;49.374;8.452;2024-03-02T01:24:02;99410.94;;;13.52
13497;BMP180;6820;49.374;8.452;2024-03-02T01:28:05;99412.56;;;13.50
13497;BMP180;6820;49.374;8.452;2024-03-02T01:32:07;99400.59;;;13.47
13497;BMP180;6820;49.374;8.452;2024-03-02T01:36:08;99400.41;;;13.43
13497;BMP180;6820;49.374;8.452;2024-03-02T01:40:10;99397.69;;;13.37
13497;BMP180;6820;49.374;8.452;2024-03-02T01:44:12;99386.53;;;13.34
13497;BMP180;6820;49.374;8.452;2024-03-02T01:48:14;99391.53;;;13.31
13497;BMP180;6820;49.374;8.452;2024-03-02T01:52:15;99387.88;;;13.24
13497;BMP180;6820;49.374;8.452;2024-03-02T01:56:17;99381.94;;;13.24
13497;BMP180;6820;49.374;8.452;2024-03-02T02:00:20;99382.66;;;13.20
13497;BMP180;6820;49.374;8.452;2024-03-02T02:04:22;99374.97;;;13.18
13497;BMP180;6820;49.374;8.452;2024-03-02T02:08:28;99380.91;;;13.19
13497;BMP180;6820;49.374;8.452;2024-03-02T02:12:30;99375.81;;;13.19
13497;BMP180;6820;49.374;8.452;2024-03-02T02:16:32;99376.72;;;13.19
13497;BMP180;6820;49.374;8.452;2024-03-02T02:20:33;99376.72;;;13.19
13497;BMP180;6820;49.374;8.452;2024-03-02T02:24:35;99371.63;;;13.19
13497;BMP180;6820;49.374;8.452;2024-03-02T02:28:37;99364.78;;;13.18
13497;BMP180;6820;49.374;8.452;2024-03-02T02:32:38;99365.63;;;13.17
13497;BMP180;6820;49.374;8.452;2024-03-02T02:36:40;99366.41;;;13.16
13497;BMP180;6820;49.374;8.452;2024-03-02T02:40:42;99370.50;;;13.11
13497;BMP180;6820;49.374;8.452;2024-03-02T02:44:44;99369.69;;;13.12
13497;BMP180;6820;49.374;8.452;2024-03-02T02:48:45;99365.44;;;13.13
13497;BMP180;6820;49.374;8.452;2024-03-02T02:52:47;99357.72;;;13.10
13497;BMP180;6820;49.374;8.452;2024-03-02T02:56:49;99352.44;;;13.04
13497;BMP180;6820;49.374;8.452;2024-03-02T03:00:50;99361.69;;;13.02
13497;BMP180;6820;49.374;8.452;2024-03-02T03:04:52;99354.88;;;13.01
13497;BMP180;6820;49.374;8.452;2024-03-02T03:08:53;99342.94;;;13.00
13497;BMP180;6820;49.374;8.452;2024-03-02T03:12:55;99337.00;;;13.00
13497;BMP180;6820;49.374;8.452;2024-03-02T03:16:57;99340.19;;;12.94
13497;BMP180;6820;49.374;8.452;2024-03-02T03:20:59;99335.78;;;12.89
13497;BMP180;6820;49.374;8.452;2024-03-02T03:25:01;99337.34;;;12.85
13497;BMP180;6820;49.374;8.452;2024-03-02T03:29:03;99342.34;;;12.82
13497;BMP180;6820;49.374;8.452;2024-03-02T03:33:05;99348.28;;;12.83
13497;BMP180;6820;49.374;8.452;2024-03-02T03:37:07;99346.59;;;12.83
13497;BMP180;6820;49.374;8.452;2024-03-02T03:41:09;99334.69;;;12.82
13497;BMP180;6820;49.374;8.452;2024-03-02T03:45:11;99337.34;;;12.85
13497;BMP180;6820;49.374;8.452;2024-03-02T03:49:12;99340.75;;;12.86
13497;BMP180;6820;49.374;8.452;2024-03-02T03:53:14;99347.72;;;12.91
13497;BMP180;6820;49.374;8.452;2024-03-02T03:57:16;99340.31;;;12.97
13497;BMP180;6820;49.374;8.452;2024-03-02T04:01:18;99341.13;;;12.96
13497;BMP180;6820;49.374;8.452;2024-03-02T04:05:20;99337.66;;;12.94
13497;BMP180;6820;49.374;8.452;2024-03-02T04:09:21;99344.47;;;12.95
13497;BMP180;6820;49.374;8.452;2024-03-02T04:13:23;99346.38;;;13.01
13497;BMP180;6820;49.374;8.452;2024-03-02T04:17:25;99340.38;;;12.99
13497;BMP180;6820;49.374;8.452;2024-03-02T04:21:26;99349.34;;;12.89
13497;BMP180;6820;49.374;8.452;2024-03-02T04:25:28;99356.59;;;12.79
13497;BMP180;6820;49.374;8.452;2024-03-02T04:29:30;99353.78;;;12.73
13497;BMP180;6820;49.374;8.452;2024-03-02T04:33:31;99356.19;;;12.69
13497;BMP180;6820;49.374;8.452;2024-03-02T04:37:34;99350.94;;;12.64
13497;BMP180;6820;49.374;8.452;2024-03-02T04:41:35;99358.50;;;12.63
13497;BMP180;6820;49.374;8.452;2024-03-02T04:45:38;99352.50;;;12.61
13497;BMP180;6820;49.374;8.452;2024-03-02T04:49:40;99354.91;;;12.58
13497;BMP180;6820;49.374;8.452;2024-03-02T04:53:42;99359.03;;;12.54
13497;BMP180;6820;49.374;8.452;2024-03-02T04:57:43;99375.03;;;12.52
13497;BMP180;6820;49.374;8.452;2024-03-02T05:01:45;99373.31;;;12.51
13497;BMP180;6820;49.374;8.452;2024-03-02T05:05:48;99380.81;;;12.48
13497;BMP180;6820;49.374;8.452;2024-03-02T05:09:50;99385.03;;;12.48
13497;BMP180;6820;49.374;8.452;2024-03-02T05:13:52;99377.22;;;12.43
13497;BMP180;6820;49.374;8.452;2024-03-02T05:17:53;99378.94;;;12.44
13497;BMP180;6820;49.374;8.452;2024-03-02T05:21:55;99375.44;;;12.41
13497;BMP180;6820;49.374;8.452;2024-03-02T05:25:57;99379.56;;;12.37
13497;BMP180;6820;49.374;8.452;2024-03-02T05:29:59;99373.53;;;12.35
13497;BMP180;6820;49.374;8.452;2024-03-02T05:34:01;99381.16;;;12.35
13497;BMP180;6820;49.374;8.452;2024-03-02T05:38:02;99378.56;;;12.34
13497;BMP180;6820;49.374;8.452;2024-03-02T05:42:04;99376.94;;;12.36
13497;BMP180;6820;49.374;8.452;2024-03-02T05:46:06;99369.31;;;12.36
13497;BMP180;6820;49.374;8.452;2024-03-02T05:50:08;99373.34;;;12.31
13497;BMP180;6820;49.374;8.452;2024-03-02T05:54:10;99374.94;;;12.27
13497;BMP180;6820;49.374;8.452;2024-03-02T05:58:11;99379.28;;;12.31
13497;BMP180;6820;49.374;8.452;2024-03-02T06:02:27;99393.78;;;12.34
13497;BMP180;6820;49.374;8.452;2024-03-02T06:06:29;99388.91;;;12.38
13497;BMP180;6820;49.374;8.452;2024-03-02T06:10:30;99397.44;;;12.40
13497;BMP180;6820;49.374;8.452;2024-03-02T06:14:32;99398.22;;;12.39
13497;BMP180;6820;49.374;8.452;2024-03-02T06:18:34;99399.88;;;12.37
13497;BMP180;6820;49.374;8.452;2024-03-02T06:22:36;99397.56;;;12.43
13497;BMP180;6820;49.374;8.452;2024-03-02T06:26:37;99390.13;;;12.48
13497;BMP180;6820;49.374;8.452;2024-03-02T06:30:41;99405.59;;;12.53
13497;BMP180;6820;49.374;8.452;2024-03-02T06:34:44;99404.00;;;12.57
13497;BMP180;6820;49.374;8.452;2024-03-02T06:38:45;99408.69;;;12.68
13497;BMP180;6820;49.374;8.452;2024-03-02T06:42:47;99411.28;;;12.70
13497;BMP180;6820;49.374;8.452;2024-03-02T06:46:48;99404.22;;;12.63
13497;BMP180;6820;49.374;8.452;2024-03-02T06:50:50;99415.91;;;12.58
13497;BMP180;6820;49.374;8.452;2024-03-02T06:54:53;99415.00;;;12.56
13497;BMP180;6820;49.374;8.452;2024-03-02T06:58:55;99413.34;;;12.58
13497;BMP180;6820;49.374;8.452;2024-03-02T07:02:56;99409.19;;;12.60
13497;BMP180;6820;49.374;8.452;2024-03-02T07:06:58;99406.00;;;12.64
13497;BMP180;6820;49.374;8.452;2024-03-02T07:11:00;99406.03;;;12.65
13497;BMP180;6820;49.374;8.452;2024-03-02T07:15:03;99394.94;;;12.63
13497;BMP180;6820;49.374;8.452;2024-03-02T07:19:06;99401.47;;;12.57
13497;BMP180;6820;49.374;8.452;2024-03-02T07:23:08;99419.44;;;12.61
13497;BMP180;6820;49.374;8.452;2024-03-02T07:27:11;99423.16;;;12.71
13497;BMP180;6820;49.374;8.452;2024-03-02T07:31:13;99432.94;;;12.82
13497;BMP180;6820;49.374;8.452;2024-03-02T07:35:16;99423.13;;;12.91
13497;BMP180;6820;49.374;8.452;2024-03-02T07:39:17;99435.50;;;13.04
13497;BMP180;6820;49.374;8.452;2024-03-02T07:43:21;99436.88;;;13.19
13497;BMP180;6820;49.374;8.452;2024-03-02T07:47:23;99435.16;;;13.41
13497;BMP180;6820;49.374;8.452;2024-03-02T07:51:25;99435.72;;;13.57
13497;BMP180;6820;49.374;8.452;2024-03-02T07:55:26;99440.50;;;13.73
13497;BMP180;6820;49.374;8.452;2024-03-02T07:59:28;99442.94;;;13.95
13497;BMP180;6820;49.374;8.452;2024-03-02T08:03:30;99444.56;;;14.17
13497;BMP180;6820;49.374;8.452;2024-03-02T08:07:34;99434.44;;;14.45
13497;BMP180;6820;49.374;8.452;2024-03-02T08:11:36;99430.88;;;14.67
13497;BMP180;6820;49.374;8.452;2024-03-02T08:15:38;99421.97;;;14.83
13497;BMP180;6820;49.374;8.452;2024-03-02T08:19:43;99423.31;;;14.99
13497;BMP180;6820;49.374;8.452;2024-03-02T08:23:45;99427.34;;;15.21
13497;BMP180;6820;49.374;8.452;2024-03-02T08:27:47;99433.59;;;15.30
13497;BMP180;6820;49.374;8.452;2024-03-02T08:31:49;99425.19;;;15.34
13497;BMP180;6820;49.374;8.452;2024-03-02T08:35:51;99423.63;;;15.39
13497;BMP180;6820;49.374;8.452;2024-03-02T08:39:53;99425.69;;;15.53
13497;BMP180;6820;49.374;8.452;2024-03-02T08:43:55;99427.69;;;15.63
13497;BMP180;6820;49.374;8.452;2024-03-02T08:47:56;99427.81;;;15.67
13497;BMP180;6820;49.374;8.452;2024-03-02T08:51:58;99426.25;;;15.74
13497;BMP180;6820;49.374;8.452;2024-03-02T08:56:00;99416.78;;;15.70
13497;BMP180;6820;49.374;8.452;2024-03-02T09:00:04;99418.13;;;15.56
13497;BMP180;6820;49.374;8.452;2024-03-02T09:04:07;99420.53;;;15.50
13497;BMP180;6820;49.374;8.452;2024-03-02T09:08:10;99410.09;;;15.43
13497;BMP180;6820;49.374;8.452;2024-03-02T09:12:12;99408.59;;;15.51
13497;BMP180;6820;49.374;8.452;2024-03-02T09:16:14;99401.88;;;15.53
13497;BMP180;6820;49.374;8.452;2024-03-02T09:20:16;99401.28;;;15.62
13497;BMP180;6820;49.374;8.452;2024-03-02T09:24:18;99407.59;;;15.76
13497;BMP180;6820;49.374;8.452;2024-03-02T09:28:19;99408.75;;;15.88
13497;BMP180;6820;49.374;8.452;2024-03-02T09:32:21;99408.25;;;16.03
13497;BMP180;6820;49.374;8.452;2024-03-02T09:36:23;99399.09;;;16.12
13497;BMP180;6820;49.374;8.452;2024-03-02T09:40:25;99394.28;;;16.22
13497;BMP180;6820;49.374;8.452;2024-03-02T09:44:26;99385.16;;;16.33
13497;BMP180;6820;49.374;8.452;2024-03-02T09:48:28;99385.47;;;16.46
13497;BMP180;6820;49.374;8.452;2024-03-02T09:52:30;99376.31;;;16.57
13497;BMP180;6820;49.374;8.452;2024-03-02T09:56:32;99370.53;;;16.66
13497;BMP180;6820;49.374;8.452;2024-03-02T10:00:34;99375.06;;;16.77
13497;BMP180;6820;49.374;8.452;2024-03-02T10:04:36;99384.63;;;16.85
13497;BMP180;6820;49.374;8.452;2024-03-02T10:08:43;99389.00;;;16.91
13497;BMP180;6820;49.374;8.452;2024-03-02T10:12:45;99386.59;;;17.00
13497;BMP180;6820;49.374;8.452;2024-03-02T10:16:47;99385.09;;;17.09
13497;BMP180;6820;49.374;8.452;2024-03-02T10:20:48;99380.13;;;17.16
13497;BMP180;6820;49.374;8.452;2024-03-02T10:24:50;99376.91;;;17.25
13497;BMP180;6820;49.374;8.452;2024-03-02T10:28:59;99370.34;;;17.38
13497;BMP180;6820;49.374;8.452;2024-03-02T10:33:02;99365.47;;;17.52
13497;BMP180;6820;49.374;8.452;2024-03-02T10:37:05;99359.25;;;17.88
13497;BMP180;6820;49.374;8.452;2024-03-02T10:41:08;99338.44;;;18.21
13497;BMP180;6820;49.374;8.452;2024-03-02T10:45:10;99351.56;;;18.43
13497;BMP180;6820;49.374;8.452;2024-03-02T10:49:13;99340.00;;;18.72
13497;BMP180;6820;49.374;8.452;2024-03-02T10:53:14;99337.81;;;19.01
13497;BMP180;6820;49.374;8.452;2024-03-02T10:57:19;99328.50;;;19.11
13497;BMP180;6820;49.374;8.452;2024-03-02T11:01:23;99319.84;;;19.03
13497;BMP180;6820;49.374;8.452;2024-03-02T11:05:31;99324.00;;;18.91
13497;BMP180;6820;49.374;8.452;2024-03-02T11:09:34;99331.69;;;18.92
13497;BMP180;6820;49.374;8.452;2024-03-02T11:13:37;99319.00;;;19.01
13497;BMP180;6820;49.374;8.452;2024-03-02T11:17:43;99307.00;;;19.01
13497;BMP180;6820;49.374;8.452;2024-03-02T11:21:46;99302.81;;;19.11
13497;BMP180;6820;49.374;8.452;2024-03-02T11:25:48;99291.72;;;19.12
13497;BMP180;6820;49.374;8.452;2024-03-02T11:29:49;99290.84;;;19.13
13497;BMP180;6820;49.374;8.452;2024-03-02T11:33:52;99287.50;;;19.21
13497;BMP180;6820;49.374;8.452;2024-03-02T11:37:54;99281.56;;;19.25
13497;BMP180;6820;49.374;8.452;2024-03-02T11:41:57;99277.34;;;19.31
13497;BMP180;6820;49.374;8.452;2024-03-02T11:46:01;99279.09;;;19.37
13497;BMP180;6820;49.374;8.452;2024-03-02T11:50:06;99262.06;;;19.46
13497;BMP180;6820;49.374;8.452;2024-03-02T11:54:08;99250.13;;;19.52
13497;BMP180;6820;49.374;8.452;2024-03-02T11:58:11;99245.03;;;19.58
13497;BMP180;6820;49.374;8.452;2024-03-02T12:02:21;99238.22;;;19.66
13497;BMP180;6820;49.374;8.452;2024-03-02T12:06:23;99244.34;;;19.76
13497;BMP180;6820;49.374;8.452;2024-03-02T12:10:26;99235.78;;;19.80
13497;BMP180;6820;49.374;8.452;2024-03-02T12:14:28;99239.25;;;19.84
13497;BMP180;6820;49.374;8.452;2024-03-02T12:18:30;99229.00;;;19.90
13497;BMP180;6820;49.374;8.452;2024-03-02T12:22:32;99228.22;;;20.02
13497;BMP180;6820;49.374;8.452;2024-03-02T12:26:33;99228.25;;;20.12
13497;BMP180;6820;49.374;8.452;2024-03-02T12:30:35;99225.75;;;20.24
13497;BMP180;6820;49.374;8.452;2024-03-02T12:34:38;99215.47;;;20.27
13497;BMP180;6820;49.374;8.452;2024-03-02T12:38:44;99207.81;;;20.34
13497;BMP180;6820;49.374;8.452;2024-03-02T12:42:46;99215.53;;;20.40
13497;BMP180;6820;49.374;8.452;2024-03-02T12:46:48;99190.69;;;20.49
13497;BMP180;6820;49.374;8.452;2024-03-02T12:50:50;99190.75;;;20.60
13497;BMP180;6820;49.374;8.452;2024-03-02T12:54:51;99177.03;;;20.68
13497;BMP180;6820;49.374;8.452;2024-03-02T12:58:55;99177.91;;;20.73
13497;BMP180;6820;49.374;8.452;2024-03-02T13:02:57;99187.38;;;20.84
13497;BMP180;6820;49.374;8.452;2024-03-02T13:07:03;99178.81;;;20.93
13497;BMP180;6820;49.374;8.452;2024-03-02T13:11:05;99169.38;;;21.01
13497;BMP180;6820;49.374;8.452;2024-03-02T13:15:08;99166.81;;;21.14
13497;BMP180;6820;49.374;8.452;2024-03-02T13:19:13;99162.50;;;21.23
13497;BMP180;6820;49.374;8.452;2024-03-02T13:23:15;99156.47;;;21.29
13497;BMP180;6820;49.374;8.452;2024-03-02T13:27:17;99157.38;;;21.38
13497;BMP180;6820;49.374;8.452;2024-03-02T13:31:21;99158.22;;;21.44
13497;BMP180;6820;49.374;8.452;2024-03-02T13:35:22;99154.75;;;21.53
13497;BMP180;6820;49.374;8.452;2024-03-02T13:39:24;99147.91;;;21.59
13497;BMP180;6820;49.374;8.452;2024-03-02T13:43:26;99141.88;;;21.62
13497;BMP180;6820;49.374;8.452;2024-03-02T13:47:28;99130.69;;;21.70
13497;BMP180;6820;49.374;8.452;2024-03-02T13:51:30;99135.78;;;21.82
13497;BMP180;6820;49.374;8.452;2024-03-02T13:55:33;99133.19;;;21.85
13497;BMP180;6820;49.374;8.452;2024-03-02T13:59:35;99131.50;;;21.81
13497;BMP180;6820;49.374;8.452;2024-03-02T14:03:37;99122.03;;;21.89
13497;BMP180;6820;49.374;8.452;2024-03-02T14:07:39;99120.22;;;22.01
13497;BMP180;6820;49.374;8.452;2024-03-02T14:11:41;99124.56;;;22.08
13497;BMP180;6820;49.374;8.452;2024-03-02T14:15:44;99121.09;;;22.13
13497;BMP180;6820;49.374;8.452;2024-03-02T14:19:47;99104.72;;;22.19
13497;BMP180;6820;49.374;8.452;2024-03-02T14:23:49;99105.53;;;22.22
13497;BMP180;6820;49.374;8.452;2024-03-02T14:27:51;99091.78;;;22.25
13497;BMP180;6820;49.374;8.452;2024-03-02T14:32:13;99100.34;;;22.28
13497;BMP180;6820;49.374;8.452;2024-03-02T14:36:14;99088.34;;;22.24
13497;BMP180;6820;49.374;8.452;2024-03-02T14:40:16;99089.22;;;22.23
13497;BMP180;6820;49.374;8.452;2024-03-02T14:44:18;99079.75;;;22.22
13497;BMP180;6820;49.374;8.452;2024-03-02T14:48:20;99088.28;;;22.30
13497;BMP180;6820;49.374;8.452;2024-03-02T14:52:21;99075.44;;;22.20
13497;BMP180;6820;49.374;8.452;2024-03-02T14:56:23;99067.75;;;22.09
13497;BMP180;6820;49.374;8.452;2024-03-02T15:00:25;99068.66;;;22.02
13497;BMP180;6820;49.374;8.452;2024-03-02T15:04:26;99062.72;;;21.86
13497;BMP180;6820;49.374;8.452;2024-03-02T15:08:28;99059.31;;;21.69
13497;BMP180;6820;49.374;8.452;2024-03-02T15:12:30;99055.97;;;21.48
13497;BMP180;6820;49.374;8.452;2024-03-02T15:16:32;99042.25;;;21.34
13497;BMP180;6820;49.374;8.452;2024-03-02T15:20:33;99046.56;;;21.28
13497;BMP180;6820;49.374;8.452;2024-03-02T15:24:35;99038.84;;;21.20
13497;BMP180;6820;49.374;8.452;2024-03-02T15:28:37;99053.44;;;21.11
13497;BMP180;6820;49.374;8.452;2024-03-02T15:32:39;99045.72;;;21.11
13497;BMP180;6820;49.374;8.452;2024-03-02T15:36:40;99039.72;;;21.09
13497;BMP180;6820;49.374;8.452;2024-03-02T15:40:42;99037.13;;;21.07
13497;BMP180;6820;49.374;8.452;2024-03-02T15:44:44;99036.28;;;21.07
13497;BMP180;6820;49.374;8.452;2024-03-02T15:48:45;99043.19;;;21.01
13497;BMP180;6820;49.374;8.452;2024-03-02T15:52:47;99045.75;;;20.96
13497;BMP180;6820;49.374;8.452;2024-03-02T15:56:49;99043.19;;;20.93
13497;BMP180;6820;49.374;8.452;2024-03-02T16:00:50;99042.31;;;20.88
13497;BMP180;6820;49.374;8.452;2024-03-02T16:04:52;99041.47;;;20.85
13497;BMP180;6820;49.374;8.452;2024-03-02T16:08:54;99035.44;;;20.78
13497;BMP180;6820;49.374;8.452;2024-03-02T16:12:58;99034.59;;;20.74
13497;BMP180;6820;49.374;8.452;2024-03-02T16:17:02;99033.75;;;20.69
13497;BMP180;6820;49.374;8.452;2024-03-02T16:21:05;99022.59;;;20.64
13497;BMP180;6820;49.374;8.452;2024-03-02T16:25:07;99028.59;;;20.58
13497;BMP180;6820;49.374;8.452;2024-03-02T16:29:08;99037.19;;;20.56
13497;BMP180;6820;49.374;8.452;2024-03-02T16:33:11;99028.56;;;20.49
13497;BMP180;6820;49.374;8.452;2024-03-02T16:37:12;99028.56;;;20.45
13497;BMP180;6820;49.374;8.452;2024-03-02T16:41:14;99018.25;;;20.41
13497;BMP180;6820;49.374;8.452;2024-03-02T16:45:18;99025.97;;;20.38
13497;BMP180;6820;49.374;8.452;2024-03-02T16:49:19;99018.25;;;20.35
13497;BMP180;6820;49.374;8.452;2024-03-02T16:53:21;99018.25;;;20.33
13497;BMP180;6820;49.374;8.452;2024-03-02T16:57:24;99021.69;;;20.32
13497;BMP180;6820;49.374;8.452;2024-03-02T17:01:26;99018.28;;;20.29
13497;BMP180;6820;49.374;8.452;2024-03-02T17:05:29;99010.56;;;20.26
13497;BMP180;6820;49.374;8.452;2024-03-02T17:09:31;99008.81;;;20.25
13497;BMP180;6820;49.374;8.452;2024-03-02T17:13:33;99003.69;;;20.23
13497;BMP180;6820;49.374;8.452;2024-03-02T17:17:34;99004.53;;;20.19
13497;BMP180;6820;49.374;8.452;2024-03-02T17:21:36;98998.50;;;20.14
13497;BMP180;6820;49.374;8.452;2024-03-02T17:25:38;98991.66;;;20.11
13497;BMP180;6820;49.374;8.452;2024-03-02T17:29:40;98989.91;;;20.07
13497;BMP180;6820;49.374;8.452;2024-03-02T17:33:42;98983.94;;;20.03
13497;BMP180;6820;49.374;8.452;2024-03-02T17:37:43;98977.06;;;20.04
13497;BMP180;6820;49.374;8.452;2024-03-02T17:41:47;98977.09;;;20.02
13497;BMP180;6820;49.374;8.452;2024-03-02T17:45:49;98977.94;;;20.03
13497;BMP180;6820;49.374;8.452;2024-03-02T17:49:51;98958.22;;;20.00
13497;BMP180;6820;49.374;8.452;2024-03-02T17:53:53;98965.91;;;19.97
13497;BMP180;6820;49.374;8.452;2024-03-02T17:57:58;98983.91;;;19.96
13497;BMP180;6820;49.374;8.452;2024-03-02T18:02:01;98972.78;;;19.94
13497;BMP180;6820;49.374;8.452;2024-03-02T18:06:04;98969.31;;;19.93
13497;BMP180;6820;49.374;8.452;2024-03-02T18:10:06;98977.88;;;19.91
13497;BMP180;6820;49.374;8.452;2024-03-02T18:14:10;98982.19;;;19.92
13497;BMP180;6820;49.374;8.452;2024-03-02T18:18:12;98983.06;;;19.92
13497;BMP180;6820;49.374;8.452;2024-03-02T18:22:13;98986.50;;;19.91
13497;BMP180;6820;49.374;8.452;2024-03-02T18:26:17;98998.44;;;19.88
13497;BMP180;6820;49.374;8.452;2024-03-02T18:30:23;98989.91;;;19.86
13497;BMP180;6820;49.374;8.452;2024-03-02T18:34:30;98987.28;;;19.80
13497;BMP180;6820;49.374;8.452;2024-03-02T18:38:32;98986.41;;;19.74
13497;BMP180;6820;49.374;8.452;2024-03-02T18:42:33;98998.41;;;19.73
13497;BMP180;6820;49.374;8.452;2024-03-02T18:46:40;98988.94;;;19.72
13497;BMP180;6820;49.374;8.452;2024-03-02T18:50:41;98988.97;;;19.71
13497;BMP180;6820;49.374;8.452;2024-03-02T18:54:43;98990.66;;;19.72
13497;BMP180;6820;49.374;8.452;2024-03-02T18:58:45;99000.09;;;19.71
13497;BMP180;6820;49.374;8.452;2024-03-02T19:02:47;99005.22;;;19.68
13497;BMP180;6820;49.374;8.452;2024-03-02T19:06:49;98998.34;;;19.60
13497;BMP180;6820;49.374;8.452;2024-03-02T19:10:51;98988.03;;;19.50
13497;BMP180;6820;49.374;8.452;2024-03-02T19:14:53;98988.88;;;19.44
13497;BMP180;6820;49.374;8.452;2024-03-02T19:18:54;98995.69;;;19.39
13497;BMP180;6820;49.374;8.452;2024-03-02T19:22:56;99000.81;;;19.33
13497;BMP180;6820;49.374;8.452;2024-03-02T19:26:58;99003.34;;;19.26
13497;BMP180;6820;49.374;8.452;2024-03-02T19:30:59;99003.28;;;19.19
13497;BMP180;6820;49.374;8.452;2024-03-02T19:35:01;99013.56;;;19.17
13497;BMP180;6820;49.374;8.452;2024-03-02T19:39:03;99016.13;;;19.14
13497;BMP180;6820;49.374;8.452;2024-03-02T19:43:05;99016.94;;;19.10
13497;BMP180;6820;49.374;8.452;2024-03-02T19:47:07;99016.94;;;19.13
13497;BMP180;6820;49.374;8.452;2024-03-02T19:51:08;98998.13;;;19.16
13497;BMP180;6820;49.374;8.452;2024-03-02T19:55:11;98993.91;;;19.22
13497;BMP180;6820;49.374;8.452;2024-03-02T19:59:14;98992.19;;;19.27
13497;BMP180;6820;49.374;8.452;2024-03-02T20:03:16;98984.53;;;19.33
13497;BMP180;6820;49.374;8.452;2024-03-02T20:07:18;98991.38;;;19.34
13497;BMP180;6820;49.374;8.452;2024-03-02T20:11:19;98978.53;;;19.31
13497;BMP180;6820;49.374;8.452;2024-03-02T20:15:21;98978.50;;;19.29
13497;BMP180;6820;49.374;8.452;2024-03-02T20:19:23;98963.97;;;19.28
13497;BMP180;6820;49.374;8.452;2024-03-02T20:23:25;98957.97;;;19.28
13497;BMP180;6820;49.374;8.452;2024-03-02T20:27:26;98941.69;;;19.29
13497;BMP180;6820;49.374;8.452;2024-03-02T20:31:28;98938.25;;;19.27
13497;BMP180;6820;49.374;8.452;2024-03-02T20:35:30;98942.53;;;19.26
13497;BMP180;6820;49.374;8.452;2024-03-02T20:39:31;98939.13;;;19.24
13497;BMP180;6820;49.374;8.452;2024-03-02T20:43:36;98940.81;;;19.21
13497;BMP180;6820;49.374;8.452;2024-03-02T20:47:38;98941.69;;;19.20
13497;BMP180;6820;49.374;8.452;2024-03-02T20:51:40;98936.53;;;19.17
13497;BMP180;6820;49.374;8.452;2024-03-02T20:55:42;98937.38;;;19.15
13497;BMP180;6820;49.374;8.452;2024-03-02T20:59:43;98939.09;;;19.11
13497;BMP180;6820;49.374;8.452;2024-03-02T21:03:45;98945.88;;;19.08
13497;BMP180;6820;49.374;8.452;2024-03-02T21:07:47;98938.16;;;19.05
13497;BMP180;6820;49.374;8.452;2024-03-02T21:11:54;98942.47;;;19.07
13497;BMP180;6820;49.374;8.452;2024-03-02T21:15:59;98945.91;;;19.06
13497;BMP180;6820;49.374;8.452;2024-03-02T21:20:01;98942.44;;;19.04
13497;BMP180;6820;49.374;8.452;2024-03-02T21:24:05;98960.44;;;19.04
13497;BMP180;6820;49.374;8.452;2024-03-02T21:28:10;98950.13;;;18.98
13497;BMP180;6820;49.374;8.452;2024-03-02T21:32:12;98958.66;;;18.94
13497;BMP180;6820;49.374;8.452;2024-03-02T21:36:13;98961.25;;;18.96
13497;BMP180;6820;49.374;8.452;2024-03-02T21:40:15;98968.94;;;18.97
13497;BMP180;6820;49.374;8.452;2024-03-02T21:44:18;98960.38;;;18.95
13497;BMP180;6820;49.374;8.452;2024-03-02T21:48:19;98947.53;;;18.92
13497;BMP180;6820;49.374;8.452;2024-03-02T21:52:25;98959.50;;;18.91
13497;BMP180;6820;49.374;8.452;2024-03-02T21:56:26;98973.13;;;18.88
13497;BMP180;6820;49.374;8.452;2024-03-02T22:00:28;98970.53;;;18.82
13497;BMP180;6820;49.374;8.452;2024-03-02T22:04:30;98967.97;;;18.82
13497;BMP180;6820;49.374;8.452;2024-03-02T22:08:31;98964.53;;;18.77
13497;BMP180;6820;49.374;8.452;2024-03-02T22:12:33;98967.03;;;18.73
13497;BMP180;6820;49.374;8.452;2024-03-02T22:16:35;98959.31;;;18.68
13497;BMP180;6820;49.374;8.452;2024-03-02T22:20:37;98946.47;;;18.65
13497;BMP180;6820;49.374;8.452;2024-03-02T22:24:40;98948.22;;;18.69
13497;BMP180;6820;49.374;8.452;2024-03-02T22:28:43;98955.88;;;18.65
13497;BMP180;6820;49.374;8.452;2024-03-02T22:32:47;98947.31;;;18.61
13497;BMP180;6820;49.374;8.452;2024-03-02T22:36:49;98949.78;;;18.51
13497;BMP180;6820;49.374;8.452;2024-03-02T22:40:50;98963.41;;;18.44
13497;BMP180;6820;49.374;8.452;2024-03-02T22:44:52;98964.22;;;18.34
13497;BMP180;6820;49.374;8.452;2024-03-02T22:48:54;98953.84;;;18.26
13497;BMP180;6820;49.374;8.452;2024-03-02T22:52:56;98963.19;;;18.16
13497;BMP180;6820;49.374;8.452;2024-03-02T22:56:58;98960.56;;;18.12
13497;BMP180;6820;49.374;8.452;2024-03-02T23:01:06;98954.56;;;18.08
13497;BMP180;6820;49.374;8.452;2024-03-02T23:05:10;98948.59;;;18.08
13497;BMP180;6820;49.374;8.452;2024-03-02T23:09:12;98941.72;;;18.05
13497;BMP180;6820;49.374;8.452;2024-03-02T23:13:19;98925.53;;;18.08
13497;BMP180;6820;49.374;8.452;2024-03-02T23:17:26;98942.63;;;18.12
13497;BMP180;6820;49.374;8.452;2024-03-02T23:21:27;98938.41;;;18.15
13497;BMP180;6820;49.374;8.452;2024-03-02T23:25:29;98926.41;;;18.14
13497;BMP180;6820;49.374;8.452;2024-03-02T23:29:31;98928.13;;;18.14
13497;BMP180;6820;49.374;8.452;2024-03-02T23:33:34;98919.56;;;18.10
13497;BMP180;6820;49.374;8.452;2024-03-02T23:37:36;98921.28;;;18.10
13497;BMP180;6820;49.374;8.452;2024-03-02T23:41:37;98918.66;;;18.07